sensor_id;sensor_type;location;lat;lon;timestamp;P1;durP1;ratioP1;P2;durP2;ratioP2
23995;SDS011;12207;50.076;8.848;2024-02-26T00:01:26;336.33;;;74.13;;
23995;SDS011;12207;50.076;8.848;2024-02-26T00:03:52;347.67;;;76.40;;
23995;SDS011;12207;50.076;8.848;2024-02-26T00:06:24;330.55;;;74.18;;
23995;SDS011;12207;50.076;8.848;2024-02-26T00:08:50;335.23;;;74.22;;
23995;SDS011;12207;50.076;8.848;2024-02-26T00:11:16;349.58;;;76.35;;
23995;SDS011;12207;50.076;8.848;2024-02-26T00:13:42;357.30;;;76.63;;
23995;SDS011;12207;50.076;8.848;2024-02-26T00:16:08;338.17;;;74.15;;
23995;SDS011;12207;50.076;8.848;2024-02-26T00:18:34;333.90;;;74.10;;
23995;SDS011;12207;50.076;8.848;2024-02-26T00:21:01;346.02;;;75.07;;
23995;SDS011;12207;50.076;8.848;2024-02-26T00:23:28;334.85;;;73.80;;
23995;SDS011;12207;50.076;8.848;2024-02-26T00:25:54;334.80;;;73.82;;
23995;SDS011;12207;50.076;8.848;2024-02-26T00:28:20;345.38;;;76.22;;
23995;SDS011;12207;50.076;8.848;2024-02-26T00:30:46;337.38;;;75.60;;
23995;SDS011;12207;50.076;8.848;2024-02-26T00:33:15;357.13;;;77.22;;
23995;SDS011;12207;50.076;8.848;2024-02-26T00:35:42;365.10;;;77.78;;
23995;SDS011;12207;50.076;8.848;2024-02-26T00:38:08;365.13;;;78.03;;
23995;SDS011;12207;50.076;8.848;2024-02-26T00:40:34;334.20;;;75.57;;
23995;SDS011;12207;50.076;8.848;2024-02-26T00:43:00;343.73;;;74.97;;
23995;SDS011;12207;50.076;8.848;2024-02-26T00:45:27;340.00;;;75.47;;
23995;SDS011;12207;50.076;8.848;2024-02-26T00:47:53;341.92;;;75.30;;
23995;SDS011;12207;50.076;8.848;2024-02-26T00:50:19;343.77;;;75.32;;
23995;SDS011;12207;50.076;8.848;2024-02-26T00:52:45;350.38;;;76.82;;
23995;SDS011;12207;50.076;8.848;2024-02-26T00:55:11;348.27;;;74.85;;
23995;SDS011;12207;50.076;8.848;2024-02-26T00:57:37;346.67;;;75.45;;
23995;SDS011;12207;50.076;8.848;2024-02-26T01:00:05;351.90;;;76.68;;
23995;SDS011;12207;50.076;8.848;2024-02-26T01:02:33;355.63;;;75.65;;
23995;SDS011;12207;50.076;8.848;2024-02-26T01:05:00;344.83;;;75.78;;
23995;SDS011;12207;50.076;8.848;2024-02-26T01:07:26;354.60;;;76.75;;
23995;SDS011;12207;50.076;8.848;2024-02-26T01:09:52;349.48;;;74.88;;
23995;SDS011;12207;50.076;8.848;2024-02-26T01:12:18;352.17;;;76.90;;
23995;SDS011;12207;50.076;8.848;2024-02-26T01:14:44;343.30;;;75.22;;
23995;SDS011;12207;50.076;8.848;2024-02-26T01:17:10;334.30;;;74.43;;
23995;SDS011;12207;50.076;8.848;2024-02-26T01:19:36;356.40;;;75.78;;
23995;SDS011;12207;50.076;8.848;2024-02-26T01:22:03;345.80;;;75.07;;
23995;SDS011;12207;50.076;8.848;2024-02-26T01:24:29;333.60;;;73.47;;
23995;SDS011;12207;50.076;8.848;2024-02-26T01:26:58;343.85;;;75.75;;
23995;SDS011;12207;50.076;8.848;2024-02-26T01:29:24;344.95;;;76.05;;
23995;SDS011;12207;50.076;8.848;2024-02-26T01:31:50;331.70;;;73.72;;
23995;SDS011;12207;50.076;8.848;2024-02-26T01:34:16;349.13;;;76.35;;
23995;SDS011;12207;50.076;8.848;2024-02-26T01:36:43;335.33;;;74.07;;
23995;SDS011;12207;50.076;8.848;2024-02-26T01:39:09;337.08;;;74.22;;
23995;SDS011;12207;50.076;8.848;2024-02-26T01:41:37;339.65;;;74.43;;
23995;SDS011;12207;50.076;8.848;2024-02-26T01:44:06;355.15;;;75.78;;
23995;SDS011;12207;50.076;8.848;2024-02-26T01:46:33;338.38;;;75.70;;
23995;SDS011;12207;50.076;8.848;2024-02-26T01:49:01;347.95;;;75.90;;
23995;SDS011;12207;50.076;8.848;2024-02-26T01:51:28;340.70;;;75.88;;
23995;SDS011;12207;50.076;8.848;2024-02-26T01:53:55;334.30;;;74.35;;
23995;SDS011;12207;50.076;8.848;2024-02-26T01:56:22;340.33;;;76.07;;
23995;SDS011;12207;50.076;8.848;2024-02-26T01:58:53;350.08;;;77.10;;
23995;SDS011;12207;50.076;8.848;2024-02-26T02:01:19;325.15;;;73.70;;
23995;SDS011;12207;50.076;8.848;2024-02-26T02:03:47;339.70;;;74.65;;
23995;SDS011;12207;50.076;8.848;2024-02-26T02:06:13;343.58;;;76.13;;
23995;SDS011;12207;50.076;8.848;2024-02-26T02:08:40;329.35;;;75.07;;
23995;SDS011;12207;50.076;8.848;2024-02-26T02:11:06;350.08;;;75.78;;
23995;SDS011;12207;50.076;8.848;2024-02-26T02:13:36;339.25;;;75.88;;
23995;SDS011;12207;50.076;8.848;2024-02-26T02:16:06;339.27;;;75.07;;
23995;SDS011;12207;50.076;8.848;2024-02-26T02:18:32;352.67;;;76.53;;
23995;SDS011;12207;50.076;8.848;2024-02-26T02:21:02;345.48;;;75.60;;
23995;SDS011;12207;50.076;8.848;2024-02-26T02:23:28;334.98;;;75.47;;
23995;SDS011;12207;50.076;8.848;2024-02-26T02:25:54;341.65;;;75.15;;
23995;SDS011;12207;50.076;8.848;2024-02-26T02:28:23;352.00;;;76.22;;
23995;SDS011;12207;50.076;8.848;2024-02-26T02:30:50;342.85;;;76.53;;
23995;SDS011;12207;50.076;8.848;2024-02-26T02:33:17;366.30;;;79.60;;
23995;SDS011;12207;50.076;8.848;2024-02-26T02:35:43;363.92;;;78.93;;
23995;SDS011;12207;50.076;8.848;2024-02-26T02:38:09;351.77;;;77.32;;
23995;SDS011;12207;50.076;8.848;2024-02-26T02:40:35;356.05;;;77.05;;
23995;SDS011;12207;50.076;8.848;2024-02-26T02:43:01;334.13;;;74.13;;
23995;SDS011;12207;50.076;8.848;2024-02-26T02:45:29;350.92;;;75.93;;
23995;SDS011;12207;50.076;8.848;2024-02-26T02:47:55;352.33;;;76.45;;
23995;SDS011;12207;50.076;8.848;2024-02-26T02:50:21;343.88;;;75.85;;
23995;SDS011;12207;50.076;8.848;2024-02-26T02:52:47;341.90;;;75.25;;
23995;SDS011;12207;50.076;8.848;2024-02-26T02:55:15;339.33;;;75.78;;
23995;SDS011;12207;50.076;8.848;2024-02-26T02:57:41;353.02;;;77.82;;
23995;SDS011;12207;50.076;8.848;2024-02-26T03:00:08;351.42;;;76.05;;
23995;SDS011;12207;50.076;8.848;2024-02-26T03:02:34;351.05;;;76.53;;
23995;SDS011;12207;50.076;8.848;2024-02-26T03:05:04;371.30;;;78.45;;
23995;SDS011;12207;50.076;8.848;2024-02-26T03:07:30;348.08;;;77.32;;
23995;SDS011;12207;50.076;8.848;2024-02-26T03:09:56;355.48;;;77.82;;
23995;SDS011;12207;50.076;8.848;2024-02-26T03:12:23;348.85;;;77.53;;
23995;SDS011;12207;50.076;8.848;2024-02-26T03:14:49;380.25;;;79.55;;
23995;SDS011;12207;50.076;8.848;2024-02-26T03:17:19;369.83;;;79.25;;
23995;SDS011;12207;50.076;8.848;2024-02-26T03:19:46;371.55;;;79.15;;
23995;SDS011;12207;50.076;8.848;2024-02-26T03:22:12;331.25;;;74.45;;
23995;SDS011;12207;50.076;8.848;2024-02-26T03:24:38;378.65;;;79.47;;
23995;SDS011;12207;50.076;8.848;2024-02-26T03:27:04;375.08;;;78.82;;
23995;SDS011;12207;50.076;8.848;2024-02-26T03:29:34;350.65;;;77.22;;
23995;SDS011;12207;50.076;8.848;2024-02-26T03:32:00;364.80;;;78.05;;
23995;SDS011;12207;50.076;8.848;2024-02-26T03:34:27;354.10;;;77.85;;
23995;SDS011;12207;50.076;8.848;2024-02-26T03:36:53;350.75;;;76.13;;
23995;SDS011;12207;50.076;8.848;2024-02-26T03:39:19;346.13;;;77.05;;
23995;SDS011;12207;50.076;8.848;2024-02-26T03:41:45;352.75;;;77.38;;
23995;SDS011;12207;50.076;8.848;2024-02-26T03:44:11;344.73;;;75.70;;
23995;SDS011;12207;50.076;8.848;2024-02-26T03:46:37;352.73;;;76.57;;
23995;SDS011;12207;50.076;8.848;2024-02-26T03:49:04;340.30;;;74.72;;
23995;SDS011;12207;50.076;8.848;2024-02-26T03:51:30;341.77;;;76.55;;
23995;SDS011;12207;50.076;8.848;2024-02-26T03:53:57;349.02;;;75.60;;
23995;SDS011;12207;50.076;8.848;2024-02-26T03:56:24;339.45;;;76.20;;
23995;SDS011;12207;50.076;8.848;2024-02-26T03:58:50;340.77;;;76.35;;
23995;SDS011;12207;50.076;8.848;2024-02-26T04:01:16;342.35;;;75.88;;
23995;SDS011;12207;50.076;8.848;2024-02-26T04:03:42;365.30;;;78.75;;
23995;SDS011;12207;50.076;8.848;2024-02-26T04:06:09;339.20;;;75.60;;
23995;SDS011;12207;50.076;8.848;2024-02-26T04:08:36;341.40;;;76.03;;
23995;SDS011;12207;50.076;8.848;2024-02-26T04:11:03;352.92;;;75.45;;
23995;SDS011;12207;50.076;8.848;2024-02-26T04:13:35;340.70;;;76.40;;
23995;SDS011;12207;50.076;8.848;2024-02-26T04:16:05;356.77;;;76.90;;
23995;SDS011;12207;50.076;8.848;2024-02-26T04:18:31;336.35;;;74.78;;
23995;SDS011;12207;50.076;8.848;2024-02-26T04:20:58;347.30;;;75.68;;
23995;SDS011;12207;50.076;8.848;2024-02-26T04:23:24;354.35;;;77.05;;
23995;SDS011;12207;50.076;8.848;2024-02-26T04:25:50;346.60;;;76.35;;
23995;SDS011;12207;50.076;8.848;2024-02-26T04:28:18;361.98;;;77.25;;
23995;SDS011;12207;50.076;8.848;2024-02-26T04:30:45;359.48;;;78.07;;
23995;SDS011;12207;50.076;8.848;2024-02-26T04:33:13;351.30;;;76.85;;
23995;SDS011;12207;50.076;8.848;2024-02-26T04:35:39;357.85;;;80.47;;
23995;SDS011;12207;50.076;8.848;2024-02-26T04:38:05;328.92;;;73.55;;
23995;SDS011;12207;50.076;8.848;2024-02-26T04:40:31;337.92;;;75.78;;
23995;SDS011;12207;50.076;8.848;2024-02-26T04:42:57;356.88;;;78.22;;
23995;SDS011;12207;50.076;8.848;2024-02-26T04:45:23;347.05;;;76.75;;
23995;SDS011;12207;50.076;8.848;2024-02-26T04:47:49;362.35;;;76.90;;
23995;SDS011;12207;50.076;8.848;2024-02-26T04:50:15;343.65;;;75.82;;
23995;SDS011;12207;50.076;8.848;2024-02-26T04:52:41;354.63;;;77.45;;
23995;SDS011;12207;50.076;8.848;2024-02-26T04:55:07;350.30;;;76.22;;
23995;SDS011;12207;50.076;8.848;2024-02-26T04:57:34;354.80;;;77.95;;
23995;SDS011;12207;50.076;8.848;2024-02-26T05:00:07;333.50;;;74.90;;
23995;SDS011;12207;50.076;8.848;2024-02-26T05:02:34;347.67;;;76.25;;
23995;SDS011;12207;50.076;8.848;2024-02-26T05:05:03;363.45;;;78.25;;
23995;SDS011;12207;50.076;8.848;2024-02-26T05:07:33;344.92;;;76.95;;
23995;SDS011;12207;50.076;8.848;2024-02-26T05:10:04;347.33;;;77.00;;
23995;SDS011;12207;50.076;8.848;2024-02-26T05:12:31;349.85;;;76.93;;
23995;SDS011;12207;50.076;8.848;2024-02-26T05:15:00;344.98;;;75.35;;
23995;SDS011;12207;50.076;8.848;2024-02-26T05:17:26;356.88;;;77.78;;
23995;SDS011;12207;50.076;8.848;2024-02-26T05:19:53;338.83;;;77.15;;
23995;SDS011;12207;50.076;8.848;2024-02-26T05:22:19;349.00;;;77.43;;
23995;SDS011;12207;50.076;8.848;2024-02-26T05:24:46;344.00;;;76.25;;
23995;SDS011;12207;50.076;8.848;2024-02-26T05:27:12;342.25;;;76.63;;
23995;SDS011;12207;50.076;8.848;2024-02-26T05:29:38;347.13;;;78.30;;
23995;SDS011;12207;50.076;8.848;2024-02-26T05:32:06;354.48;;;76.93;;
23995;SDS011;12207;50.076;8.848;2024-02-26T05:34:32;337.73;;;75.28;;
23995;SDS011;12207;50.076;8.848;2024-02-26T05:36:58;349.10;;;76.63;;
23995;SDS011;12207;50.076;8.848;2024-02-26T05:39:24;348.33;;;76.70;;
23995;SDS011;12207;50.076;8.848;2024-02-26T05:41:50;356.23;;;82.18;;
23995;SDS011;12207;50.076;8.848;2024-02-26T05:44:19;343.77;;;77.28;;
23995;SDS011;12207;50.076;8.848;2024-02-26T05:46:47;337.50;;;76.95;;
23995;SDS011;12207;50.076;8.848;2024-02-26T05:49:13;351.85;;;74.80;;
23995;SDS011;12207;50.076;8.848;2024-02-26T05:51:39;349.60;;;74.65;;
23995;SDS011;12207;50.076;8.848;2024-02-26T05:54:05;356.42;;;75.50;;
23995;SDS011;12207;50.076;8.848;2024-02-26T05:56:33;364.65;;;76.10;;
23995;SDS011;12207;50.076;8.848;2024-02-26T05:58:59;337.95;;;73.82;;
23995;SDS011;12207;50.076;8.848;2024-02-26T06:01:28;353.85;;;75.07;;
23995;SDS011;12207;50.076;8.848;2024-02-26T06:03:54;347.75;;;74.38;;
23995;SDS011;12207;50.076;8.848;2024-02-26T06:06:20;356.05;;;76.22;;
23995;SDS011;12207;50.076;8.848;2024-02-26T06:08:48;354.52;;;77.35;;
23995;SDS011;12207;50.076;8.848;2024-02-26T06:11:14;361.63;;;77.30;;
23995;SDS011;12207;50.076;8.848;2024-02-26T06:13:40;342.55;;;74.70;;
23995;SDS011;12207;50.076;8.848;2024-02-26T06:16:09;357.85;;;75.70;;
23995;SDS011;12207;50.076;8.848;2024-02-26T06:18:36;346.02;;;74.72;;
23995;SDS011;12207;50.076;8.848;2024-02-26T06:21:02;334.17;;;74.35;;
23995;SDS011;12207;50.076;8.848;2024-02-26T06:23:28;338.20;;;73.78;;
23995;SDS011;12207;50.076;8.848;2024-02-26T06:25:54;351.40;;;74.82;;
23995;SDS011;12207;50.076;8.848;2024-02-26T06:28:20;347.02;;;74.60;;
23995;SDS011;12207;50.076;8.848;2024-02-26T06:30:46;353.67;;;76.25;;
23995;SDS011;12207;50.076;8.848;2024-02-26T06:33:12;358.08;;;75.55;;
23995;SDS011;12207;50.076;8.848;2024-02-26T06:35:39;335.45;;;73.97;;
23995;SDS011;12207;50.076;8.848;2024-02-26T06:38:05;335.90;;;73.43;;
23995;SDS011;12207;50.076;8.848;2024-02-26T06:40:32;333.67;;;73.47;;
23995;SDS011;12207;50.076;8.848;2024-02-26T06:42:58;325.50;;;72.40;;
23995;SDS011;12207;50.076;8.848;2024-02-26T06:45:25;347.98;;;74.13;;
23995;SDS011;12207;50.076;8.848;2024-02-26T06:47:51;341.83;;;74.70;;
23995;SDS011;12207;50.076;8.848;2024-02-26T06:50:17;339.55;;;73.30;;
23995;SDS011;12207;50.076;8.848;2024-02-26T06:52:44;357.05;;;77.60;;
23995;SDS011;12207;50.076;8.848;2024-02-26T06:55:11;337.75;;;73.40;;
23995;SDS011;12207;50.076;8.848;2024-02-26T06:57:38;345.40;;;73.97;;
23995;SDS011;12207;50.076;8.848;2024-02-26T07:00:04;353.67;;;75.82;;
23995;SDS011;12207;50.076;8.848;2024-02-26T07:02:34;370.42;;;76.85;;
23995;SDS011;12207;50.076;8.848;2024-02-26T07:05:00;349.75;;;75.07;;
23995;SDS011;12207;50.076;8.848;2024-02-26T07:07:26;353.70;;;75.72;;
23995;SDS011;12207;50.076;8.848;2024-02-26T07:09:52;371.83;;;78.18;;
23995;SDS011;12207;50.076;8.848;2024-02-26T07:12:20;350.25;;;74.10;;
23995;SDS011;12207;50.076;8.848;2024-02-26T07:14:46;365.77;;;77.65;;
23995;SDS011;12207;50.076;8.848;2024-02-26T07:17:12;355.35;;;75.55;;
23995;SDS011;12207;50.076;8.848;2024-02-26T07:19:38;347.02;;;76.68;;
23995;SDS011;12207;50.076;8.848;2024-02-26T07:22:04;343.38;;;74.88;;
23995;SDS011;12207;50.076;8.848;2024-02-26T07:24:30;351.95;;;75.50;;
23995;SDS011;12207;50.076;8.848;2024-02-26T07:26:57;361.52;;;76.38;;
23995;SDS011;12207;50.076;8.848;2024-02-26T07:29:23;355.10;;;75.20;;
23995;SDS011;12207;50.076;8.848;2024-02-26T07:31:51;357.27;;;76.28;;
23995;SDS011;12207;50.076;8.848;2024-02-26T07:34:17;349.42;;;75.53;;
23995;SDS011;12207;50.076;8.848;2024-02-26T07:36:43;352.30;;;75.00;;
23995;SDS011;12207;50.076;8.848;2024-02-26T07:39:10;351.98;;;75.10;;
23995;SDS011;12207;50.076;8.848;2024-02-26T07:41:36;352.90;;;76.13;;
23995;SDS011;12207;50.076;8.848;2024-02-26T07:44:03;350.83;;;78.75;;
23995;SDS011;12207;50.076;8.848;2024-02-26T07:46:30;355.98;;;74.72;;
23995;SDS011;12207;50.076;8.848;2024-02-26T07:48:56;358.70;;;76.05;;
23995;SDS011;12207;50.076;8.848;2024-02-26T07:51:22;344.60;;;75.00;;
23995;SDS011;12207;50.076;8.848;2024-02-26T07:53:48;356.63;;;76.05;;
23995;SDS011;12207;50.076;8.848;2024-02-26T07:56:14;350.35;;;75.88;;
23995;SDS011;12207;50.076;8.848;2024-02-26T07:58:43;337.13;;;74.65;;
23995;SDS011;12207;50.076;8.848;2024-02-26T08:01:15;358.80;;;76.82;;
23995;SDS011;12207;50.076;8.848;2024-02-26T08:03:41;343.00;;;75.07;;
23995;SDS011;12207;50.076;8.848;2024-02-26T08:06:08;360.50;;;77.45;;
23995;SDS011;12207;50.076;8.848;2024-02-26T08:08:34;352.30;;;75.53;;
23995;SDS011;12207;50.076;8.848;2024-02-26T08:11:00;357.40;;;76.53;;
23995;SDS011;12207;50.076;8.848;2024-02-26T08:13:29;328.75;;;72.97;;
23995;SDS011;12207;50.076;8.848;2024-02-26T08:15:55;373.25;;;77.97;;
23995;SDS011;12207;50.076;8.848;2024-02-26T08:18:21;348.40;;;75.72;;
23995;SDS011;12207;50.076;8.848;2024-02-26T08:20:47;325.25;;;72.40;;
23995;SDS011;12207;50.076;8.848;2024-02-26T08:23:14;358.00;;;76.80;;
23995;SDS011;12207;50.076;8.848;2024-02-26T08:25:40;354.38;;;75.55;;
23995;SDS011;12207;50.076;8.848;2024-02-26T08:28:08;337.13;;;74.78;;
23995;SDS011;12207;50.076;8.848;2024-02-26T08:30:38;362.35;;;76.00;;
23995;SDS011;12207;50.076;8.848;2024-02-26T08:33:04;351.08;;;74.70;;
23995;SDS011;12207;50.076;8.848;2024-02-26T08:35:30;337.92;;;73.78;;
23995;SDS011;12207;50.076;8.848;2024-02-26T08:37:56;363.83;;;76.57;;
23995;SDS011;12207;50.076;8.848;2024-02-26T08:40:22;351.00;;;75.95;;
23995;SDS011;12207;50.076;8.848;2024-02-26T08:42:48;339.30;;;74.68;;
23995;SDS011;12207;50.076;8.848;2024-02-26T08:45:14;348.85;;;75.30;;
23995;SDS011;12207;50.076;8.848;2024-02-26T08:47:40;330.77;;;74.35;;
23995;SDS011;12207;50.076;8.848;2024-02-26T08:50:07;351.05;;;76.40;;
23995;SDS011;12207;50.076;8.848;2024-02-26T08:52:34;343.50;;;74.72;;
23995;SDS011;12207;50.076;8.848;2024-02-26T08:55:01;351.48;;;76.47;;
23995;SDS011;12207;50.076;8.848;2024-02-26T08:57:28;366.52;;;77.68;;
23995;SDS011;12207;50.076;8.848;2024-02-26T08:59:54;357.95;;;76.63;;
23995;SDS011;12207;50.076;8.848;2024-02-26T09:02:20;355.80;;;77.20;;
23995;SDS011;12207;50.076;8.848;2024-02-26T09:04:46;346.45;;;76.45;;
23995;SDS011;12207;50.076;8.848;2024-02-26T09:07:12;342.58;;;75.10;;
23995;SDS011;12207;50.076;8.848;2024-02-26T09:09:38;356.90;;;76.78;;
23995;SDS011;12207;50.076;8.848;2024-02-26T09:12:04;357.50;;;76.32;;
23995;SDS011;12207;50.076;8.848;2024-02-26T09:14:31;344.20;;;75.40;;
23995;SDS011;12207;50.076;8.848;2024-02-26T09:16:57;361.08;;;76.97;;
23995;SDS011;12207;50.076;8.848;2024-02-26T09:19:23;366.75;;;78.50;;
23995;SDS011;12207;50.076;8.848;2024-02-26T09:21:50;342.95;;;75.25;;
23995;SDS011;12207;50.076;8.848;2024-02-26T09:24:17;355.85;;;76.90;;
23995;SDS011;12207;50.076;8.848;2024-02-26T09:26:43;380.13;;;78.43;;
23995;SDS011;12207;50.076;8.848;2024-02-26T09:29:09;355.23;;;76.72;;
23995;SDS011;12207;50.076;8.848;2024-02-26T09:31:35;350.52;;;76.72;;
23995;SDS011;12207;50.076;8.848;2024-02-26T09:34:01;344.25;;;76.68;;
23995;SDS011;12207;50.076;8.848;2024-02-26T09:36:27;345.60;;;77.15;;
23995;SDS011;12207;50.076;8.848;2024-02-26T09:38:53;349.73;;;77.15;;
23995;SDS011;12207;50.076;8.848;2024-02-26T09:41:19;369.85;;;78.55;;
23995;SDS011;12207;50.076;8.848;2024-02-26T09:43:46;375.15;;;79.38;;
23995;SDS011;12207;50.076;8.848;2024-02-26T09:46:17;370.27;;;78.10;;
23995;SDS011;12207;50.076;8.848;2024-02-26T09:48:45;345.80;;;75.78;;
23995;SDS011;12207;50.076;8.848;2024-02-26T09:51:12;343.85;;;75.90;;
23995;SDS011;12207;50.076;8.848;2024-02-26T09:53:39;364.60;;;78.22;;
23995;SDS011;12207;50.076;8.848;2024-02-26T09:56:07;356.63;;;76.95;;
23995;SDS011;12207;50.076;8.848;2024-02-26T09:58:34;337.42;;;76.30;;
23995;SDS011;12207;50.076;8.848;2024-02-26T10:01:10;351.10;;;76.35;;
23995;SDS011;12207;50.076;8.848;2024-02-26T10:03:39;355.85;;;77.47;;
23995;SDS011;12207;50.076;8.848;2024-02-26T10:06:07;351.42;;;77.18;;
23995;SDS011;12207;50.076;8.848;2024-02-26T10:08:34;345.98;;;75.82;;
23995;SDS011;12207;50.076;8.848;2024-02-26T10:11:02;365.25;;;77.88;;
23995;SDS011;12207;50.076;8.848;2024-02-26T10:13:32;362.73;;;78.18;;
23995;SDS011;12207;50.076;8.848;2024-02-26T10:16:02;358.13;;;77.95;;
23995;SDS011;12207;50.076;8.848;2024-02-26T10:18:49;378.45;;;80.57;;
23995;SDS011;12207;50.076;8.848;2024-02-26T10:21:18;360.05;;;78.43;;
23995;SDS011;12207;50.076;8.848;2024-02-26T10:23:48;421.50;;;83.72;;
23995;SDS011;12207;50.076;8.848;2024-02-26T10:26:15;370.73;;;78.63;;
23995;SDS011;12207;50.076;8.848;2024-02-26T10:28:43;347.33;;;77.65;;
23995;SDS011;12207;50.076;8.848;2024-02-26T10:31:13;352.98;;;77.57;;
23995;SDS011;12207;50.076;8.848;2024-02-26T10:33:40;360.40;;;78.68;;
23995;SDS011;12207;50.076;8.848;2024-02-26T10:36:08;367.63;;;78.32;;
23995;SDS011;12207;50.076;8.848;2024-02-26T10:38:35;357.75;;;79.65;;
23995;SDS011;12207;50.076;8.848;2024-02-26T10:41:03;357.15;;;78.38;;
23995;SDS011;12207;50.076;8.848;2024-02-26T10:43:30;364.85;;;78.95;;
23995;SDS011;12207;50.076;8.848;2024-02-26T10:45:56;360.17;;;78.43;;
23995;SDS011;12207;50.076;8.848;2024-02-26T10:48:23;382.42;;;84.68;;
23995;SDS011;12207;50.076;8.848;2024-02-26T10:50:49;387.20;;;80.35;;
23995;SDS011;12207;50.076;8.848;2024-02-26T10:53:21;378.45;;;80.85;;
23995;SDS011;12207;50.076;8.848;2024-02-26T10:55:54;379.58;;;80.53;;
23995;SDS011;12207;50.076;8.848;2024-02-26T10:58:25;372.67;;;79.88;;
23995;SDS011;12207;50.076;8.848;2024-02-26T11:00:53;363.13;;;79.50;;
23995;SDS011;12207;50.076;8.848;2024-02-26T11:03:25;385.08;;;82.07;;
23995;SDS011;12207;50.076;8.848;2024-02-26T11:05:53;362.27;;;80.25;;
23995;SDS011;12207;50.076;8.848;2024-02-26T11:08:22;378.70;;;81.13;;
23995;SDS011;12207;50.076;8.848;2024-02-26T11:10:50;390.90;;;82.13;;
23995;SDS011;12207;50.076;8.848;2024-02-26T11:13:18;363.10;;;79.75;;
23995;SDS011;12207;50.076;8.848;2024-02-26T11:15:48;388.27;;;83.97;;
23995;SDS011;12207;50.076;8.848;2024-02-26T11:18:15;376.55;;;80.22;;
23995;SDS011;12207;50.076;8.848;2024-02-26T11:20:42;366.27;;;81.25;;
23995;SDS011;12207;50.076;8.848;2024-02-26T11:23:09;365.40;;;81.05;;
23995;SDS011;12207;50.076;8.848;2024-02-26T11:25:38;368.73;;;81.32;;
23995;SDS011;12207;50.076;8.848;2024-02-26T11:28:05;367.17;;;80.72;;
23995;SDS011;12207;50.076;8.848;2024-02-26T11:30:39;391.80;;;83.15;;
23995;SDS011;12207;50.076;8.848;2024-02-26T11:33:08;375.77;;;82.53;;
23995;SDS011;12207;50.076;8.848;2024-02-26T11:35:37;360.38;;;81.90;;
23995;SDS011;12207;50.076;8.848;2024-02-26T11:38:07;347.80;;;79.97;;
23995;SDS011;12207;50.076;8.848;2024-02-26T11:40:33;356.45;;;81.85;;
23995;SDS011;12207;50.076;8.848;2024-02-26T11:43:07;376.50;;;82.72;;
23995;SDS011;12207;50.076;8.848;2024-02-26T11:50:41;369.52;;;82.80;;
23995;SDS011;12207;50.076;8.848;2024-02-26T11:53:21;371.00;;;83.45;;
23995;SDS011;12207;50.076;8.848;2024-02-26T11:58:53;369.35;;;83.97;;
23995;SDS011;12207;50.076;8.848;2024-02-26T12:04:23;372.60;;;83.47;;
23995;SDS011;12207;50.076;8.848;2024-02-26T12:06:52;360.17;;;82.00;;
23995;SDS011;12207;50.076;8.848;2024-02-26T12:12:01;362.30;;;80.95;;
23995;SDS011;12207;50.076;8.848;2024-02-26T12:14:51;373.80;;;81.32;;
23995;SDS011;12207;50.076;8.848;2024-02-26T12:19:44;373.45;;;83.10;;
23995;SDS011;12207;50.076;8.848;2024-02-26T12:22:12;360.08;;;81.10;;
23995;SDS011;12207;50.076;8.848;2024-02-26T12:24:39;379.23;;;83.50;;
23995;SDS011;12207;50.076;8.848;2024-02-26T12:27:08;369.73;;;83.45;;
23995;SDS011;12207;50.076;8.848;2024-02-26T12:29:34;365.45;;;84.18;;
23995;SDS011;12207;50.076;8.848;2024-02-26T12:32:01;385.27;;;85.30;;
23995;SDS011;12207;50.076;8.848;2024-02-26T12:34:31;384.08;;;84.88;;
23995;SDS011;12207;50.076;8.848;2024-02-26T12:36:57;382.45;;;85.72;;
23995;SDS011;12207;50.076;8.848;2024-02-26T12:39:24;363.63;;;85.38;;
23995;SDS011;12207;50.076;8.848;2024-02-26T12:41:50;377.08;;;87.05;;
23995;SDS011;12207;50.076;8.848;2024-02-26T12:44:16;379.50;;;85.82;;
23995;SDS011;12207;50.076;8.848;2024-02-26T12:46:43;379.08;;;86.07;;
23995;SDS011;12207;50.076;8.848;2024-02-26T12:49:14;376.05;;;85.97;;
23995;SDS011;12207;50.076;8.848;2024-02-26T12:51:42;394.25;;;88.07;;
23995;SDS011;12207;50.076;8.848;2024-02-26T12:54:09;377.58;;;84.90;;
23995;SDS011;12207;50.076;8.848;2024-02-26T12:56:35;379.33;;;85.95;;
23995;SDS011;12207;50.076;8.848;2024-02-26T12:59:01;381.13;;;85.25;;
23995;SDS011;12207;50.076;8.848;2024-02-26T13:01:28;393.92;;;90.35;;
23995;SDS011;12207;50.076;8.848;2024-02-26T13:03:55;395.35;;;88.63;;
23995;SDS011;12207;50.076;8.848;2024-02-26T13:06:22;369.00;;;84.07;;
23995;SDS011;12207;50.076;8.848;2024-02-26T13:08:48;365.02;;;83.30;;
23995;SDS011;12207;50.076;8.848;2024-02-26T13:11:14;367.40;;;85.32;;
23995;SDS011;12207;50.076;8.848;2024-02-26T13:13:41;372.35;;;82.63;;
23995;SDS011;12207;50.076;8.848;2024-02-26T13:16:08;360.45;;;82.15;;
23995;SDS011;12207;50.076;8.848;2024-02-26T13:18:39;367.92;;;83.82;;
23995;SDS011;12207;50.076;8.848;2024-02-26T13:21:12;378.73;;;85.00;;
23995;SDS011;12207;50.076;8.848;2024-02-26T13:23:40;402.70;;;89.45;;
23995;SDS011;12207;50.076;8.848;2024-02-26T13:26:07;387.80;;;85.82;;
23995;SDS011;12207;50.076;8.848;2024-02-26T13:28:36;377.77;;;85.75;;
23995;SDS011;12207;50.076;8.848;2024-02-26T13:31:03;426.45;;;90.22;;
23995;SDS011;12207;50.076;8.848;2024-02-26T13:33:32;371.55;;;83.18;;
23995;SDS011;12207;50.076;8.848;2024-02-26T13:35:59;388.58;;;86.65;;
23995;SDS011;12207;50.076;8.848;2024-02-26T13:38:25;374.67;;;84.47;;
23995;SDS011;12207;50.076;8.848;2024-02-26T13:40:53;394.05;;;86.78;;
23995;SDS011;12207;50.076;8.848;2024-02-26T13:43:19;391.20;;;87.22;;
23995;SDS011;12207;50.076;8.848;2024-02-26T13:45:46;375.02;;;85.18;;
23995;SDS011;12207;50.076;8.848;2024-02-26T13:48:12;392.27;;;86.20;;
23995;SDS011;12207;50.076;8.848;2024-02-26T13:50:41;373.33;;;84.60;;
23995;SDS011;12207;50.076;8.848;2024-02-26T13:53:08;371.00;;;84.80;;
23995;SDS011;12207;50.076;8.848;2024-02-26T13:55:34;370.23;;;83.45;;
23995;SDS011;12207;50.076;8.848;2024-02-26T13:58:01;378.98;;;84.15;;
23995;SDS011;12207;50.076;8.848;2024-02-26T14:00:27;366.35;;;82.50;;
23995;SDS011;12207;50.076;8.848;2024-02-26T14:02:59;379.77;;;85.85;;
23995;SDS011;12207;50.076;8.848;2024-02-26T14:05:25;372.10;;;85.32;;
23995;SDS011;12207;50.076;8.848;2024-02-26T14:07:52;365.77;;;82.85;;
23995;SDS011;12207;50.076;8.848;2024-02-26T14:10:19;385.20;;;85.47;;
23995;SDS011;12207;50.076;8.848;2024-02-26T14:12:46;395.13;;;87.45;;
23995;SDS011;12207;50.076;8.848;2024-02-26T14:15:12;372.58;;;84.25;;
23995;SDS011;12207;50.076;8.848;2024-02-26T14:17:38;405.85;;;87.13;;
23995;SDS011;12207;50.076;8.848;2024-02-26T14:20:04;380.85;;;84.93;;
23995;SDS011;12207;50.076;8.848;2024-02-26T14:22:32;380.58;;;84.70;;
23995;SDS011;12207;50.076;8.848;2024-02-26T14:24:58;376.65;;;83.78;;